createdAt,value
2019-02-23T00:00:02.857Z,27.58
2019-02-23T00:02:31.271Z,27.78
2019-02-23T00:07:53.192Z,27.74
2019-02-23T00:10:21.683Z,27.05
2019-02-23T00:12:50.089Z,26.94
2019-02-23T00:15:18.535Z,27.28
2019-02-23T00:17:46.937Z,27.37
2019-02-23T00:20:15.493Z,27.47
2019-02-23T00:22:43.910Z,27.02
2019-02-23T00:25:12.351Z,27.34
2019-02-23T00:27:40.748Z,27.09
2019-02-23T00:30:09.148Z,27.14
2019-02-23T00:32:37.571Z,27.29
2019-02-23T00:35:05.971Z,27.04
2019-02-23T00:37:34.376Z,27.11
2019-02-23T00:40:02.769Z,27.32
2019-02-23T00:42:31.163Z,27.11
2019-02-23T00:44:59.553Z,27.18
2019-02-23T00:47:27.946Z,27.13
2019-02-23T00:49:56.342Z,26.96
2019-02-23T00:52:24.732Z,27.22
2019-02-23T00:54:53.141Z,27.01
2019-02-23T00:57:21.563Z,27.15
2019-02-23T00:59:49.966Z,27.18
2019-02-23T01:02:18.359Z,27.06
2019-02-23T01:04:46.778Z,26.97
2019-02-23T01:07:15.175Z,27.05
2019-02-23T01:09:43.612Z,27.12
2019-02-23T01:12:12.075Z,27.02
2019-02-23T01:14:40.498Z,27.10
2019-02-23T01:17:08.884Z,26.94
2019-02-23T01:19:47.420Z,27.18
2019-02-23T01:22:07.418Z,27.06
2019-02-23T01:24:35.889Z,27.09
2019-02-23T01:27:04.278Z,27.02
2019-02-23T01:29:32.732Z,26.86
2019-02-23T01:32:01.146Z,27.29
2019-02-23T01:34:29.564Z,26.98
2019-02-23T01:36:57.950Z,26.89
2019-02-23T01:39:26.467Z,26.99
2019-02-23T01:41:54.858Z,26.99
2019-02-23T01:44:23.281Z,26.93
2019-02-23T01:46:51.737Z,27.08
2019-02-23T01:49:20.150Z,27.00
2019-02-23T01:51:48.538Z,27.02
2019-02-23T01:54:16.978Z,26.88
2019-02-23T01:56:45.377Z,27.16
2019-02-23T01:59:13.896Z,27.06
2019-02-23T02:01:42.290Z,27.08
2019-02-23T02:04:10.715Z,27.10
2019-02-23T02:06:39.135Z,27.01
2019-02-23T02:09:07.932Z,27.17
2019-02-23T02:11:36.321Z,27.10
2019-02-23T02:14:04.812Z,27.02
2019-02-23T02:16:33.207Z,26.97
2019-02-23T02:19:01.607Z,27.02
2019-02-23T02:21:29.999Z,27.00
2019-02-23T02:23:58.389Z,27.14
2019-02-23T02:26:26.775Z,27.13
2019-02-23T02:28:55.172Z,27.04
2019-02-23T02:31:23.575Z,27.06
2019-02-23T02:34:09.154Z,27.03
2019-02-23T02:36:37.549Z,27.07
2019-02-23T02:39:08.645Z,27.30
2019-02-23T02:41:37.043Z,27.09
2019-02-23T02:44:05.433Z,27.17
2019-02-23T02:46:33.894Z,27.15
2019-02-23T02:49:02.281Z,27.16
2019-02-23T02:51:30.683Z,27.23
2019-02-23T02:53:59.071Z,27.23
2019-02-23T02:56:27.472Z,26.95
2019-02-23T02:58:55.859Z,27.00
2019-02-23T03:01:24.259Z,27.39
2019-02-23T03:03:52.650Z,27.12
2019-02-23T03:06:21.035Z,27.28
2019-02-23T03:08:49.428Z,27.24
2019-02-23T03:11:17.872Z,27.33
2019-02-23T03:13:46.267Z,27.04
2019-02-23T03:16:14.669Z,27.36
2019-02-23T03:18:43.066Z,27.38
2019-02-23T03:21:11.460Z,27.26
2019-02-23T03:23:39.847Z,27.25
2019-02-23T03:26:08.310Z,27.33
2019-02-23T03:28:36.711Z,27.23
2019-02-23T03:31:05.130Z,27.28
2019-02-23T03:33:33.521Z,27.29
2019-02-23T03:36:02.069Z,27.26
2019-02-23T03:38:30.530Z,27.16
2019-02-23T03:40:58.928Z,27.36
2019-02-23T03:43:27.354Z,27.22
2019-02-23T03:45:55.777Z,27.23
2019-02-23T03:48:24.535Z,27.31
2019-02-23T03:50:52.924Z,27.60
2019-02-23T03:53:21.338Z,27.23
2019-02-23T03:55:49.800Z,27.12
2019-02-23T03:58:18.186Z,27.28
2019-02-23T04:00:46.605Z,27.20
2019-02-23T04:03:14.989Z,27.38
2019-02-23T04:05:43.416Z,27.33
2019-02-23T04:08:11.869Z,27.42
2019-02-23T04:10:40.307Z,27.35
2019-02-23T04:13:08.708Z,27.30
2019-02-23T04:15:37.405Z,27.34
2019-02-23T04:18:05.907Z,27.34
2019-02-23T04:20:34.332Z,27.44
2019-02-23T04:23:02.728Z,27.53
2019-02-23T04:25:31.160Z,27.37
2019-02-23T04:27:59.548Z,27.24
2019-02-23T04:30:27.996Z,27.54
2019-02-23T04:32:56.393Z,27.46
2019-02-23T04:35:24.830Z,27.78
2019-02-23T04:37:53.219Z,27.60
2019-02-23T04:40:21.693Z,27.45
2019-02-23T04:42:50.092Z,27.51
2019-02-23T04:45:18.517Z,27.59
2019-02-23T04:47:47.078Z,27.46
2019-02-23T04:50:15.495Z,27.42
2019-02-23T04:52:43.952Z,27.45
2019-02-23T04:55:12.418Z,27.54
2019-02-23T04:57:40.806Z,27.53
2019-02-23T05:00:12.655Z,27.41
2019-02-23T05:02:41.199Z,27.65
2019-02-23T05:05:09.978Z,27.54
2019-02-23T05:07:38.371Z,27.62
2019-02-23T05:10:08.441Z,27.46
2019-02-23T05:12:36.862Z,27.52
2019-02-23T05:15:07.530Z,27.58
2019-02-23T05:17:35.918Z,27.64
2019-02-23T05:20:05.070Z,27.54
2019-02-23T05:22:33.463Z,27.64
2019-02-23T05:25:01.861Z,27.56
2019-02-23T05:27:30.249Z,27.74
2019-02-23T05:29:58.640Z,27.62
2019-02-23T05:32:27.036Z,27.73
2019-02-23T05:34:55.417Z,27.70
2019-02-23T05:37:23.972Z,27.78
2019-02-23T05:39:52.369Z,27.60
2019-02-23T05:42:20.773Z,27.69
2019-02-23T05:44:49.166Z,27.66
2019-02-23T05:47:17.567Z,27.65
2019-02-23T05:49:45.964Z,27.71
2019-02-23T05:52:14.358Z,27.89
2019-02-23T05:54:42.774Z,27.89
2019-02-23T05:57:11.168Z,27.68
2019-02-23T05:59:39.558Z,27.88
2019-02-23T06:02:07.950Z,27.83
2019-02-23T06:04:36.338Z,27.74
2019-02-23T06:07:04.803Z,27.83
2019-02-23T06:09:33.192Z,27.90
2019-02-23T06:12:01.606Z,27.96
2019-02-23T06:14:30.016Z,28.18
2019-02-23T06:16:58.383Z,27.75
2019-02-23T06:19:26.781Z,27.85
2019-02-23T06:21:55.180Z,27.93
2019-02-23T06:24:23.572Z,27.80
2019-02-23T06:26:51.988Z,27.91
2019-02-23T06:29:20.381Z,27.70
2019-02-23T06:31:48.780Z,27.74
2019-02-23T06:34:17.240Z,27.85
2019-02-23T06:36:45.599Z,27.75
2019-02-23T06:39:14.061Z,27.84
2019-02-23T06:41:42.456Z,27.76
2019-02-23T06:44:10.855Z,27.66
2019-02-23T06:46:39.255Z,27.79
2019-02-23T06:49:07.639Z,27.91
2019-02-23T06:51:36.070Z,27.78
2019-02-23T06:54:05.448Z,27.92
2019-02-23T06:56:33.930Z,27.90
2019-02-23T06:59:02.370Z,27.97
2019-02-23T07:01:30.790Z,27.80
2019-02-23T07:03:59.224Z,27.84
2019-02-23T07:06:27.659Z,27.80
2019-02-23T07:08:56.054Z,27.85
2019-02-23T07:11:24.485Z,27.80
2019-02-23T07:13:52.892Z,27.72
2019-02-23T07:16:21.284Z,27.54
2019-02-23T07:18:49.680Z,27.82
2019-02-23T07:21:18.111Z,27.65
2019-02-23T07:23:46.529Z,27.73
2019-02-23T07:26:14.971Z,27.77
2019-02-23T07:28:43.363Z,27.69
2019-02-23T07:31:11.791Z,27.84
2019-02-23T07:33:40.194Z,27.72
2019-02-23T07:36:08.684Z,27.97
2019-02-23T07:38:37.078Z,27.86
2019-02-23T07:41:05.509Z,27.86
2019-02-23T07:43:34.005Z,27.85
2019-02-23T07:46:02.426Z,27.96
2019-02-23T07:48:30.822Z,27.77
2019-02-23T07:50:59.215Z,27.83
2019-02-23T07:53:27.619Z,27.85
2019-02-23T07:55:56.096Z,27.86
2019-02-23T07:58:24.488Z,27.79
2019-02-23T08:00:52.878Z,27.63
2019-02-23T08:03:21.271Z,27.65
2019-02-23T08:05:49.663Z,27.71
2019-02-23T08:08:18.057Z,27.68
2019-02-23T08:10:46.447Z,27.66
2019-02-23T08:13:14.843Z,27.60
2019-02-23T08:15:43.239Z,27.54
2019-02-23T08:18:12.330Z,27.50
2019-02-23T08:20:40.730Z,27.29
2019-02-23T08:23:09.161Z,27.44
2019-02-23T08:25:37.567Z,27.43
2019-02-23T08:28:06.160Z,27.32
2019-02-23T08:30:34.555Z,27.31
2019-02-23T08:33:03.045Z,27.21
2019-02-23T08:35:31.445Z,27.33
2019-02-23T08:37:59.905Z,27.43
2019-02-23T08:40:28.303Z,27.65
2019-02-23T08:42:56.698Z,27.62
2019-02-23T08:45:25.105Z,27.54
2019-02-23T08:47:53.522Z,27.56
2019-02-23T08:50:22.101Z,27.56
2019-02-23T08:52:50.583Z,27.46
2019-02-23T08:55:19.093Z,27.46
2019-02-23T08:57:47.505Z,27.47
2019-02-23T09:00:19.453Z,27.42
2019-02-23T09:02:47.889Z,27.46
2019-02-23T09:05:16.284Z,27.44
2019-02-23T09:07:46.282Z,27.44
2019-02-23T09:10:15.214Z,27.42
2019-02-23T09:12:43.613Z,27.25
2019-02-23T09:15:12.278Z,27.13
2019-02-23T09:17:40.682Z,27.08
2019-02-23T09:20:13.237Z,26.84
2019-02-23T09:22:41.638Z,26.86
2019-02-23T09:25:11.183Z,26.76
2019-02-23T09:27:39.588Z,26.68
2019-02-23T09:30:12.643Z,26.67
2019-02-23T09:32:41.048Z,26.52
2019-02-23T09:35:11.152Z,26.34
2019-02-23T09:37:41.194Z,26.16
2019-02-23T09:40:20.461Z,26.17
2019-02-23T09:42:48.863Z,26.15
2019-02-23T09:45:17.272Z,25.89
2019-02-23T09:47:45.698Z,25.79
2019-02-23T09:50:14.101Z,25.68
2019-02-23T09:52:42.508Z,25.54
2019-02-23T09:55:10.911Z,25.52
2019-02-23T09:57:39.335Z,25.39
2019-02-23T10:00:12.727Z,25.30
2019-02-23T10:02:41.163Z,25.10
2019-02-23T10:05:09.978Z,25.11
2019-02-23T10:07:38.409Z,25.03
2019-02-23T10:10:09.534Z,24.92
2019-02-23T10:12:38.010Z,25.11
2019-02-23T10:15:08.649Z,25.04
2019-02-23T10:17:37.075Z,25.10
2019-02-23T10:20:14.077Z,25.07
2019-02-23T10:22:42.486Z,25.15
2019-02-23T10:25:10.878Z,25.03
2019-02-23T10:27:39.312Z,24.99
2019-02-23T10:30:13.672Z,24.97
2019-02-23T10:32:42.090Z,24.92
2019-02-23T10:35:12.119Z,24.93
2019-02-23T10:37:40.645Z,24.84
2019-02-23T10:40:11.232Z,24.75
2019-02-23T10:42:39.658Z,24.68
2019-02-23T10:45:12.786Z,24.58
2019-02-23T10:47:41.222Z,24.45
2019-02-23T10:50:17.001Z,24.40
2019-02-23T10:52:45.386Z,24.31
2019-02-23T10:55:14.918Z,24.23
2019-02-23T10:57:43.319Z,24.19
2019-02-23T11:00:18.594Z,24.12
2019-02-23T11:02:47.061Z,24.08
2019-02-23T11:05:15.792Z,23.97
2019-02-23T11:07:45.493Z,23.94
2019-02-23T11:10:13.951Z,23.86
2019-02-23T11:12:42.382Z,23.79
2019-02-23T11:15:12.910Z,23.71
2019-02-23T11:17:41.341Z,23.65
2019-02-23T11:20:10.887Z,23.47
2019-02-23T11:22:39.350Z,23.28
2019-02-23T11:25:10.174Z,23.07
2019-02-23T11:27:38.596Z,22.83
2019-02-23T11:30:10.345Z,22.57
2019-02-23T11:32:38.773Z,22.32
2019-02-23T11:35:09.140Z,22.07
2019-02-23T11:37:37.555Z,21.88
2019-02-23T11:40:11.125Z,21.65
2019-02-23T11:42:41.121Z,21.43
2019-02-23T11:45:10.856Z,21.21
2019-02-23T11:47:39.295Z,20.95
2019-02-23T11:50:11.679Z,20.79
2019-02-23T11:52:40.091Z,20.88
2019-02-23T11:55:08.494Z,20.88
2019-02-23T11:57:36.976Z,20.79
2019-02-23T12:00:08.269Z,20.58
2019-02-23T12:02:36.687Z,20.41
2019-02-23T12:05:05.151Z,20.14
2019-02-23T12:07:33.589Z,19.70
2019-02-23T12:10:01.989Z,19.43
2019-02-23T12:12:30.407Z,19.01
2019-02-23T12:14:58.788Z,18.88
2019-02-23T12:17:27.180Z,18.77
2019-02-23T12:19:55.593Z,18.56
2019-02-23T12:22:24.024Z,18.39
2019-02-23T12:24:52.418Z,18.41
2019-02-23T12:27:20.810Z,18.28
2019-02-23T12:29:49.213Z,18.30
2019-02-23T12:32:17.610Z,18.40
2019-02-23T12:34:46.007Z,18.34
2019-02-23T12:37:14.408Z,18.18
2019-02-23T12:39:43.880Z,18.06
2019-02-23T12:42:12.273Z,17.90
2019-02-23T12:44:40.793Z,17.77
2019-02-23T12:47:09.208Z,17.67
2019-02-23T12:49:37.644Z,17.59
2019-02-23T12:52:06.038Z,17.33
2019-02-23T12:54:34.451Z,17.16
2019-02-23T12:57:02.853Z,17.04
2019-02-23T12:59:31.274Z,17.04
2019-02-23T13:01:59.663Z,16.73
2019-02-23T13:04:28.070Z,16.59
2019-02-23T13:06:56.497Z,16.51
2019-02-23T13:09:27.401Z,16.44
2019-02-23T13:12:23.243Z,16.24
2019-02-23T13:15:03.926Z,16.20
2019-02-23T13:17:38.843Z,15.98
2019-02-23T13:20:22.505Z,15.94
2019-02-23T13:23:06.219Z,15.72
2019-02-23T13:25:55.782Z,15.09
2019-02-23T13:28:45.471Z,15.24
2019-02-23T13:31:23.319Z,15.05
2019-02-23T13:34:00.834Z,14.91
2019-02-23T13:36:38.712Z,14.76
2019-02-23T13:39:28.636Z,14.79
2019-02-23T13:42:21.402Z,15.22
2019-02-23T13:45:09.948Z,15.72
2019-02-23T13:47:59.747Z,15.78
2019-02-23T13:50:34.463Z,16.19
2019-02-23T13:53:15.132Z,16.22
2019-02-23T13:55:49.480Z,16.32
2019-02-23T13:58:24.153Z,16.29
2019-02-23T14:01:04.585Z,16.40
2019-02-23T14:03:57.717Z,16.42
2019-02-23T14:06:38.386Z,16.68
2019-02-23T14:09:42.033Z,15.72
2019-02-23T14:12:13.712Z,16.51
2019-02-23T14:15:03.395Z,17.00
2019-02-23T14:17:37.943Z,17.27
2019-02-23T14:20:24.557Z,17.53
2019-02-23T14:23:08.392Z,17.88
2019-02-23T14:25:45.810Z,18.20
2019-02-23T14:28:17.496Z,18.50
2019-02-23T14:31:01.268Z,19.01
2019-02-23T14:34:01.807Z,19.29
2019-02-23T14:37:08.332Z,19.79
2019-02-23T14:39:58.193Z,20.13
2019-02-23T14:43:01.715Z,14.77
2019-02-23T14:46:00.491Z,15.65
2019-02-23T14:48:57.940Z,20.99
2019-02-23T14:51:51.909Z,22.69
2019-02-23T14:54:26.760Z,23.69
2019-02-23T14:57:19.816Z,23.37
2019-02-23T15:00:03.548Z,23.47
2019-02-23T15:02:43.869Z,23.52
2019-02-23T15:05:27.480Z,23.76
2019-02-23T15:07:59.132Z,23.63
2019-02-23T15:10:53.160Z,23.69
2019-02-23T15:13:47.569Z,23.80
2019-02-23T15:16:31.027Z,23.75
2019-02-23T15:19:36.178Z,24.05
2019-02-23T15:22:17.053Z,24.12
2019-02-23T15:25:23.546Z,24.44
2019-02-23T15:28:30.322Z,24.44
2019-02-23T15:30:59.077Z,24.66
2019-02-23T15:33:51.905Z,25.04
2019-02-23T15:36:29.637Z,25.12
2019-02-23T15:39:27.221Z,25.51
2019-02-23T15:42:24.113Z,25.73
2019-02-23T15:45:01.333Z,25.65
2019-02-23T15:47:58.968Z,25.73
2019-02-23T15:50:27.461Z,25.99
2019-02-23T15:52:55.944Z,26.08
2019-02-23T15:55:26.523Z,26.55
2019-02-23T15:57:54.642Z,26.39
2019-02-23T16:00:23.163Z,26.41
2019-02-23T16:02:51.557Z,26.94
2019-02-23T16:05:21.674Z,26.42
2019-02-23T16:07:50.091Z,27.29
2019-02-23T16:10:18.488Z,27.29
2019-02-23T16:12:46.872Z,27.67
2019-02-23T16:15:15.270Z,27.54
2019-02-23T16:17:43.684Z,27.73
2019-02-23T16:20:12.069Z,27.55
2019-02-23T16:22:40.278Z,28.02
2019-02-23T16:25:08.679Z,28.42
2019-02-23T16:27:37.146Z,28.24
2019-02-23T16:30:08.450Z,28.56
2019-02-23T16:32:36.845Z,28.46
2019-02-23T16:35:07.059Z,28.54
2019-02-23T16:37:35.470Z,28.72
2019-02-23T16:40:03.948Z,28.76
2019-02-23T16:42:32.346Z,28.85
2019-02-23T16:45:00.751Z,29.14
2019-02-23T16:47:30.723Z,29.01
2019-02-23T16:49:59.237Z,28.93
2019-02-23T16:52:27.645Z,29.00
2019-02-23T16:54:56.096Z,29.24
2019-02-23T16:57:24.534Z,29.13
2019-02-23T16:59:53.056Z,29.26
2019-02-23T17:02:21.471Z,29.31
2019-02-23T17:04:54.053Z,29.65
2019-02-23T17:07:21.359Z,29.76
2019-02-23T17:09:49.786Z,29.40
2019-02-23T17:12:18.185Z,29.71
2019-02-23T17:14:46.624Z,29.57
2019-02-23T17:17:15.053Z,30.10
2019-02-23T17:19:43.470Z,30.50
2019-02-23T17:25:07.642Z,30.14
2019-02-23T17:27:36.662Z,30.60
2019-02-23T17:30:07.260Z,31.31
2019-02-23T17:32:35.739Z,31.03
2019-02-23T17:35:05.496Z,31.34
2019-02-23T17:37:33.898Z,31.57
2019-02-23T17:40:02.343Z,31.74
2019-02-23T17:42:30.807Z,31.83
2019-02-23T17:44:59.225Z,32.08
2019-02-23T17:47:27.708Z,32.04
2019-02-23T17:49:56.284Z,31.84
2019-02-23T17:52:24.817Z,31.64
2019-02-23T17:54:54.486Z,32.44
2019-02-23T17:57:22.923Z,32.40
2019-02-23T17:59:52.388Z,32.26
2019-02-23T18:02:20.796Z,32.13
2019-02-23T18:04:49.263Z,32.55
2019-02-23T18:07:17.664Z,32.29
2019-02-23T18:09:46.099Z,31.98
2019-02-23T18:12:14.595Z,32.18
2019-02-23T18:14:43.057Z,32.18
2019-02-23T18:17:11.447Z,32.34
2019-02-23T18:19:39.847Z,32.58
2019-02-23T18:22:08.414Z,32.26
2019-02-23T18:24:36.971Z,32.49
2019-02-23T18:27:08.511Z,32.51
2019-02-23T18:29:37.455Z,32.29
2019-02-23T18:32:06.115Z,32.70
2019-02-23T18:34:34.535Z,32.65
2019-02-23T18:37:04.030Z,32.56
2019-02-23T18:39:32.607Z,32.40
2019-02-23T18:42:01.132Z,32.33
2019-02-23T18:44:29.608Z,32.33
2019-02-23T18:46:58.051Z,32.47
2019-02-23T18:49:26.493Z,32.56
2019-02-23T18:51:55.048Z,32.48
2019-02-23T18:54:23.469Z,32.85
2019-02-23T18:56:51.907Z,32.67
2019-02-23T18:59:20.307Z,32.69
2019-02-23T19:01:48.760Z,32.46
2019-02-23T19:04:17.155Z,32.87
2019-02-23T19:06:45.567Z,32.74
2019-02-23T19:09:13.964Z,32.84
2019-02-23T19:11:42.371Z,32.84
2019-02-23T19:14:10.761Z,32.27
2019-02-23T19:16:39.347Z,32.45
2019-02-23T19:19:07.794Z,32.30
2019-02-23T19:21:36.271Z,32.71
2019-02-23T19:24:04.676Z,32.59
2019-02-23T19:26:38.242Z,32.93
2019-02-23T19:29:03.288Z,32.86
2019-02-23T19:31:31.703Z,32.86
2019-02-23T19:34:00.109Z,32.83
2019-02-23T19:36:28.624Z,32.95
2019-02-23T19:38:57.211Z,33.08
2019-02-23T19:41:25.610Z,33.26
2019-02-23T19:43:54.017Z,32.92
2019-02-23T19:46:22.782Z,33.20
2019-02-23T19:48:51.196Z,33.03
2019-02-23T19:51:19.595Z,33.53
2019-02-23T19:53:48.511Z,33.08
2019-02-23T19:56:16.910Z,33.79
2019-02-23T19:58:45.312Z,34.39
2019-02-23T20:01:13.726Z,34.27
2019-02-23T20:03:42.200Z,34.49
2019-02-23T20:06:11.196Z,35.09
2019-02-23T20:08:39.594Z,33.89
2019-02-23T20:11:08.126Z,33.96
2019-02-23T20:13:36.513Z,32.77
2019-02-23T20:16:04.951Z,33.24
2019-02-23T20:18:33.353Z,33.51
2019-02-23T20:21:01.798Z,33.64
2019-02-23T20:23:30.194Z,33.87
2019-02-23T20:25:58.635Z,33.73
2019-02-23T20:28:27.114Z,33.42
2019-02-23T20:30:56.605Z,34.00
2019-02-23T20:35:59.607Z,33.55
2019-02-23T20:38:28.003Z,33.22
2019-02-23T20:40:56.448Z,33.61
2019-02-23T20:43:24.847Z,32.38
2019-02-23T20:45:53.268Z,32.62
2019-02-23T20:48:21.686Z,32.84
2019-02-23T20:50:50.093Z,32.73
2019-02-23T20:53:18.504Z,32.89
2019-02-23T20:55:46.905Z,32.42
2019-02-23T20:58:15.309Z,32.48
2019-02-23T21:00:43.718Z,33.19
2019-02-23T21:03:12.115Z,32.86
2019-02-23T21:05:40.519Z,32.85
2019-02-23T21:08:08.995Z,32.56
2019-02-23T21:10:37.480Z,32.61
2019-02-23T21:13:05.885Z,32.56
2019-02-23T21:15:34.291Z,32.82
2019-02-23T21:18:02.692Z,32.11
2019-02-23T21:20:31.129Z,31.85
2019-02-23T21:22:59.541Z,32.09
2019-02-23T21:25:27.940Z,32.02
2019-02-23T21:27:56.410Z,31.43
2019-02-23T21:30:24.891Z,32.59
2019-02-23T21:32:53.336Z,32.29
2019-02-23T21:35:21.762Z,31.67
2019-02-23T21:37:50.195Z,31.59
2019-02-23T21:40:18.592Z,32.07
2019-02-23T21:42:47.028Z,32.23
2019-02-23T21:45:15.448Z,32.11
2019-02-23T21:47:43.869Z,31.58
2019-02-23T21:50:12.274Z,32.24
2019-02-23T21:52:40.814Z,31.63
2019-02-23T21:55:09.284Z,31.49
2019-02-23T21:57:37.716Z,31.31
2019-02-23T22:00:08.374Z,31.79
2019-02-23T22:02:36.791Z,31.89
2019-02-23T22:05:11.984Z,31.90
2019-02-23T22:07:36.150Z,31.97
2019-02-23T22:10:07.433Z,31.83
2019-02-23T22:12:35.866Z,31.58
2019-02-23T22:15:05.510Z,31.64
2019-02-23T22:17:33.911Z,31.88
2019-02-23T22:20:02.317Z,31.58
2019-02-23T22:22:30.743Z,31.60
2019-02-23T22:25:01.900Z,31.97
2019-02-23T22:27:31.560Z,31.96
2019-02-23T22:30:00.494Z,31.63
2019-02-23T22:32:29.024Z,31.33
2019-02-23T22:34:57.482Z,31.76
2019-02-23T22:37:26.027Z,31.28
2019-02-23T22:39:54.432Z,31.39
2019-02-23T22:42:22.826Z,31.40
2019-02-23T22:44:51.301Z,31.61
2019-02-23T22:47:19.706Z,31.79
2019-02-23T22:49:48.097Z,31.47
2019-02-23T22:52:16.505Z,30.82
2019-02-23T22:54:44.937Z,31.40
2019-02-23T22:57:13.378Z,31.50
2019-02-23T22:59:41.778Z,30.94
2019-02-23T23:02:10.217Z,31.10
2019-02-23T23:04:38.688Z,31.03
2019-02-23T23:07:07.109Z,31.30
2019-02-23T23:09:35.510Z,31.32
2019-02-23T23:12:04.246Z,31.28
2019-02-23T23:14:32.649Z,31.22
2019-02-23T23:17:01.241Z,31.13
2019-02-23T23:19:29.644Z,30.89
2019-02-23T23:21:58.058Z,31.29
2019-02-23T23:24:26.461Z,31.34
2019-02-23T23:26:54.890Z,30.98
2019-02-23T23:29:23.290Z,31.18
2019-02-23T23:31:51.691Z,31.28
2019-02-23T23:34:20.100Z,31.05
2019-02-23T23:36:48.500Z,31.42
2019-02-23T23:39:16.907Z,31.56
2019-02-23T23:41:45.316Z,31.40
2019-02-23T23:44:13.800Z,30.93
2019-02-23T23:46:42.269Z,30.89
2019-02-23T23:49:10.682Z,31.18
2019-02-23T23:51:39.087Z,30.83
2019-02-23T23:54:07.488Z,30.84
2019-02-23T23:56:35.892Z,31.13
2019-02-23T23:59:04.300Z,30.81
